Time;durP1;ratioP1;P1;durP2;ratioP2;P2;SDS_P1;SDS_P2;PMS_P1;PMS_P2;Temp;Humidity;BMP_temperature;BMP_pressure;BME280_temperature;BME280_humidity;BME280_pressure;Samples;Min_cycle;Max_cycle;Signal;HPM_P1;HPM_P2
2023/01/01 00:01:24;;;;;;;68.47;47.27;;;;;;;15.82;59.17;100531.56;4958435;28;20421;-70
2023/01/01 00:03:54;;;;;;;53.07;42.40;;;;;;;15.85;59.14;100542.81;4946851;28;20471;-70
2023/01/01 00:06:26;;;;;;;55.13;43.47;;;;;;;15.72;59.62;100547.75;4951469;28;20486;-72
2023/01/01 00:11:38;;;;;;;33.70;27.90;;;;;;;15.76;59.11;100544.28;4945870;28;20449;-69
2023/01/01 00:14:07;;;;;;;46.03;33.73;;;;;;;15.72;58.98;100551.31;4975021;28;20434;-70
2023/01/01 00:16:41;;;;;;;28.20;18.23;;;;;;;15.77;58.47;100545.13;4978299;28;20410;-72
2023/01/01 00:19:10;;;;;;;17.43;14.93;;;;;;;15.92;57.78;100531.75;4965521;28;20825;-73
2023/01/01 00:21:40;;;;;;;17.80;14.40;;;;;;;15.91;57.68;100541.00;4960410;28;21012;-72
2023/01/01 00:24:09;;;;;;;20.23;15.33;;;;;;;15.85;58.00;100548.28;4933512;29;21045;-72
2023/01/01 00:26:39;;;;;;;21.20;12.77;;;;;;;15.86;57.58;100547.22;4951474;28;20786;-70
2023/01/01 00:29:07;;;;;;;17.10;10.80;;;;;;;15.88;57.49;100542.31;4945974;28;20421;-71
2023/01/01 00:31:37;;;;;;;15.00;11.37;;;;;;;15.99;56.64;100555.09;4947701;28;20453;-70
2023/01/01 00:34:06;;;;;;;11.30;10.20;;;;;;;15.93;56.66;100566.97;4950506;28;20872;-70
2023/01/01 00:36:35;;;;;;;15.80;11.00;;;;;;;15.96;56.64;100552.84;4949642;28;20773;-69
2023/01/01 00:39:05;;;;;;;14.47;9.53;;;;;;;15.96;56.32;100550.13;4951231;28;20535;-70
2023/01/01 00:41:34;;;;;;;15.83;8.70;;;;;;;15.99;55.99;100557.81;4949369;28;20407;-71
2023/01/01 00:44:03;;;;;;;13.83;10.57;;;;;;;15.91;56.19;100563.69;4948785;28;20450;-70
2023/01/01 00:46:32;;;;;;;28.40;14.10;;;;;;;15.80;56.43;100569.19;4931587;28;20537;-71
2023/01/01 00:49:01;;;;;;;12.70;8.47;;;;;;;15.90;55.88;100562.00;4951530;28;20406;-70
2023/01/01 00:51:30;;;;;;;10.93;6.17;;;;;;;15.92;55.67;100559.06;4949816;28;21230;-71
2023/01/01 00:54:06;;;;;;;11.13;6.60;;;;;;;15.91;55.45;100568.31;4949487;29;20965;-70
2023/01/01 00:56:35;;;;;;;6.97;6.27;;;;;;;15.91;55.31;100563.69;4949145;28;20436;-72
2023/01/01 00:59:04;;;;;;;8.97;5.17;;;;;;;15.85;55.35;100572.84;4951527;28;20447;-69
2023/01/01 01:01:33;;;;;;;9.93;6.17;;;;;;;15.84;55.74;100565.72;4940656;28;20845;-71
2023/01/01 01:04:03;;;;;;;7.53;6.23;;;;;;;15.79;55.24;100571.06;4949458;28;20487;-70
2023/01/01 01:06:33;;;;;;;12.00;8.83;;;;;;;15.79;55.44;100575.69;4952174;28;20531;-70
2023/01/01 01:09:02;;;;;;;15.17;8.60;;;;;;;15.72;55.27;100575.03;4951742;28;20410;-71
2023/01/01 01:11:32;;;;;;;10.67;9.57;;;;;;;15.88;54.59;100585.16;4949147;28;20493;-70
2023/01/01 01:14:01;;;;;;;10.20;7.10;;;;;;;15.94;54.13;100574.09;4946176;28;20452;-71
2023/01/01 01:16:32;;;;;;;7.23;5.07;;;;;;;15.85;54.61;100583.75;4951437;28;20456;-72
2023/01/01 01:19:04;;;;;;;13.03;7.47;;;;;;;15.82;54.55;100586.97;4951102;28;20399;-70
2023/01/01 01:21:34;;;;;;;10.67;5.60;;;;;;;15.91;54.15;100580.06;4951135;28;20430;-71
2023/01/01 01:24:04;;;;;;;4.93;3.80;;;;;;;16.01;53.71;100584.88;4952195;28;20453;-73
2023/01/01 01:26:35;;;;;;;7.27;4.33;;;;;;;16.03;53.61;100583.53;4946118;28;20439;-70
2023/01/01 01:29:04;;;;;;;13.73;8.27;;;;;;;16.01;53.53;100585.69;4948478;28;20431;-71
2023/01/01 01:31:34;;;;;;;11.27;5.43;;;;;;;15.99;53.56;100587.00;4950548;28;20523;-71
2023/01/01 01:34:03;;;;;;;7.27;5.77;;;;;;;16.12;53.10;100580.44;4953477;28;20463;-70
2023/01/01 01:36:33;;;;;;;11.70;5.47;;;;;;;16.09;53.20;100588.03;4952523;28;20465;-70
2023/01/01 01:39:03;;;;;;;15.53;6.93;;;;;;;16.01;53.28;100595.78;4952521;28;20459;-71
2023/01/01 01:41:33;;;;;;;7.40;5.70;;;;;;;15.89;54.08;100587.63;4951925;28;20544;-70
2023/01/01 01:44:04;;;;;;;7.70;5.30;;;;;;;15.88;53.76;100591.44;4951216;28;20841;-70
2023/01/01 01:46:37;;;;;;;12.60;7.60;;;;;;;15.89;53.72;100587.63;4954289;28;20414;-70
2023/01/01 01:49:15;;;;;;;6.63;5.63;;;;;;;15.87;53.94;100595.25;4952376;28;20451;-68
2023/01/01 01:51:45;;;;;;;8.37;5.33;;;;;;;15.89;53.61;100590.38;4956952;28;20810;-73
2023/01/01 01:54:22;;;;;;;8.37;5.10;;;;;;;15.93;53.57;100588.81;4954906;28;20426;-71
2023/01/01 01:56:56;;;;;;;10.10;5.00;;;;;;;15.90;53.54;100583.84;4953227;28;21003;-72
2023/01/01 01:59:30;;;;;;;7.37;5.03;;;;;;;16.02;53.08;100584.59;4954451;28;20438;-71
2023/01/01 02:02:00;;;;;;;8.33;5.80;;;;;;;16.04;53.12;100585.19;4951453;28;20795;-71
2023/01/01 02:04:29;;;;;;;10.60;6.60;;;;;;;16.04;53.12;100595.28;4949724;28;20510;-73
2023/01/01 02:06:58;;;;;;;11.23;6.10;;;;;;;16.13;52.80;100587.50;4953148;28;20444;-71
2023/01/01 02:09:28;;;;;;;6.07;4.73;;;;;;;16.14;52.74;100598.19;4955921;28;20494;-70
2023/01/01 02:11:59;;;;;;;8.43;5.13;;;;;;;16.14;52.67;100603.66;4957165;28;20457;-71
2023/01/01 02:14:28;;;;;;;9.90;6.13;;;;;;;16.09;52.59;100593.47;4958552;28;20433;-71
2023/01/01 02:17:03;;;;;;;9.23;6.20;;;;;;;16.04;53.04;100601.56;4965383;29;20510;-72
2023/01/01 02:19:44;;;;;;;10.27;7.20;;;;;;;16.08;52.77;100604.63;4969966;28;20422;-70
2023/01/01 02:22:17;;;;;;;10.50;6.43;;;;;;;16.20;52.22;100601.84;4966021;28;20412;-70
2023/01/01 02:25:09;;;;;;;9.20;8.30;;;;;;;16.22;51.88;100591.50;4966756;28;20522;-72
2023/01/01 02:27:50;;;;;;;12.03;6.53;;;;;;;16.27;51.86;100605.25;4963264;28;20418;-71
2023/01/01 02:30:21;;;;;;;7.50;5.27;;;;;;;16.27;51.78;100588.84;4966669;28;20417;-71
2023/01/01 02:32:54;;;;;;;7.67;5.73;;;;;;;16.14;52.08;100590.00;4965236;28;20436;-71
2023/01/01 02:35:34;;;;;;;8.30;4.90;;;;;;;16.04;52.26;100577.00;4969334;29;20426;-71
2023/01/01 02:38:09;;;;;;;7.83;4.57;;;;;;;15.96;52.45;100588.34;4969121;28;20485;-72
2023/01/01 02:40:44;;;;;;;9.80;5.20;;;;;;;15.89;52.66;100576.72;4958924;28;20487;-72
2023/01/01 02:43:13;;;;;;;6.43;5.30;;;;;;;15.83;52.56;100583.16;4968123;29;20405;-70
2023/01/01 02:45:45;;;;;;;5.53;3.63;;;;;;;15.92;52.26;100576.25;4969562;28;20485;-72
2023/01/01 02:48:39;;;;;;;9.90;4.80;;;;;;;15.82;52.72;100581.53;4949706;29;20426;-71
2023/01/01 02:51:19;;;;;;;8.57;5.13;;;;;;;15.64;53.26;100576.22;4963778;29;20418;-71
2023/01/01 02:53:59;;;;;;;7.63;4.10;;;;;;;15.72;52.96;100573.13;4970177;28;20446;-71
2023/01/01 02:56:45;;;;;;;12.43;5.23;;;;;;;15.67;52.99;100561.31;4968325;28;20406;-71
2023/01/01 03:02:22;;;;;;;9.83;4.40;;;;;;;15.44;53.80;100570.38;4949044;28;20610;-71
2023/01/01 03:05:03;;;;;;;7.30;5.03;;;;;;;15.40;53.88;100577.34;4950653;28;20533;-72
2023/01/01 03:07:41;;;;;;;8.93;5.70;;;;;;;15.51;53.95;100574.63;4950166;28;20422;-71
2023/01/01 03:10:38;;;;;;;9.93;4.60;;;;;;;15.44;53.96;100573.09;4953474;28;20402;-73
2023/01/01 03:13:15;;;;;;;8.30;4.97;;;;;;;15.39;53.98;100581.16;4951682;29;20429;-72
2023/01/01 03:15:51;;;;;;;10.90;5.03;;;;;;;15.28;54.28;100584.75;4950471;28;20429;-70
2023/01/01 03:18:27;;;;;;;17.00;5.17;;;;;;;15.35;54.35;100588.16;4956824;28;20400;-72
2023/01/01 03:20:58;;;;;;;10.67;6.10;;;;;;;15.21;54.78;100587.59;4950971;28;20402;-71
2023/01/01 03:23:35;;;;;;;8.57;4.90;;;;;;;15.19;54.78;100597.94;4949830;29;20438;-71
2023/01/01 03:26:09;;;;;;;10.13;5.67;;;;;;;15.11;54.95;100585.47;4958510;28;20472;-71
2023/01/01 03:28:45;;;;;;;7.67;5.30;;;;;;;15.21;54.79;100599.31;4953567;28;20423;-71
2023/01/01 03:31:18;;;;;;;5.60;4.03;;;;;;;15.19;54.78;100587.84;4953548;28;20439;-71
2023/01/01 03:33:54;;;;;;;12.80;4.90;;;;;;;15.47;54.14;100584.34;4955979;28;21408;-72
2023/01/01 03:36:28;;;;;;;7.77;4.27;;;;;;;15.43;54.42;100595.97;4954125;28;20847;-72
2023/01/01 03:39:01;;;;;;;10.03;4.20;;;;;;;15.47;54.08;100580.78;4951877;28;20784;-70
2023/01/01 03:41:36;;;;;;;10.93;4.07;;;;;;;15.48;54.09;100591.47;4946265;28;22263;-71
2023/01/01 03:44:11;;;;;;;9.73;3.90;;;;;;;15.44;54.12;100594.91;4960011;28;20860;-73
2023/01/01 03:46:42;;;;;;;15.30;5.13;;;;;;;15.36;54.58;100590.66;4952882;28;20438;-71
2023/01/01 03:49:14;;;;;;;6.77;4.70;;;;;;;15.35;54.45;100596.31;4957513;28;20469;-70
2023/01/01 03:52:01;;;;;;;7.30;4.27;;;;;;;15.27;54.63;100600.25;4952615;28;20410;-70
2023/01/01 03:54:46;;;;;;;10.60;4.97;;;;;;;15.34;54.60;100606.44;4947467;28;20460;-72
2023/01/01 03:57:24;;;;;;;10.17;5.87;;;;;;;15.26;54.58;100614.13;4950728;28;20443;-71
2023/01/01 04:00:02;;;;;;;14.37;4.90;;;;;;;15.26;54.61;100625.03;4956115;28;20440;-71
2023/01/01 04:02:44;;;;;;;12.10;5.07;;;;;;;15.17;54.81;100614.50;4957804;28;20430;-71
2023/01/01 04:05:17;;;;;;;8.00;4.10;;;;;;;15.28;54.55;100639.25;4950054;28;20493;-72
2023/01/01 04:07:50;;;;;;;9.37;5.13;;;;;;;15.15;55.07;100630.25;4953631;29;20429;-71
2023/01/01 04:10:18;;;;;;;10.30;4.60;;;;;;;15.20;54.93;100644.00;4968963;28;20407;-72
2023/01/01 04:12:49;;;;;;;11.20;4.80;;;;;;;15.11;55.00;100639.97;4977229;28;20454;-72
2023/01/01 04:15:19;;;;;;;9.17;5.33;;;;;;;15.10;55.07;100643.75;5026442;23;20479;-71
2023/01/01 04:17:51;;;;;;;10.60;5.30;;;;;;;15.14;54.95;100649.59;4997890;28;20427;-71
2023/01/01 04:20:22;;;;;;;8.50;4.90;;;;;;;15.20;54.77;100652.19;4997301;28;20408;-73
2023/01/01 04:22:51;;;;;;;12.60;5.80;;;;;;;15.33;54.41;100658.47;4996306;28;20490;-70
2023/01/01 04:25:25;;;;;;;9.80;4.30;;;;;;;15.30;54.58;100654.31;4994053;28;20465;-72
2023/01/01 04:27:57;;;;;;;7.07;4.87;;;;;;;15.46;54.15;100659.03;4995873;28;20465;-71
2023/01/01 04:30:31;;;;;;;7.70;5.10;;;;;;;15.48;53.70;100650.63;5048980;23;20472;-82
2023/01/01 04:33:00;;;;;;;10.10;4.57;;;;;;;15.36;54.14;100650.63;4988908;28;20774;-81
2023/01/01 04:35:30;;;;;;;7.17;4.30;;;;;;;15.27;54.28;100653.97;4982898;28;20401;-83
2023/01/01 04:38:02;;;;;;;10.17;4.50;;;;;;;15.13;54.61;100654.22;4992581;23;20503;-83
2023/01/01 04:40:31;;;;;;;11.40;5.40;;;;;;;15.11;54.59;100650.88;4966128;28;20456;-83
2023/01/01 04:43:09;;;;;;;7.90;4.40;;;;;;;15.06;54.89;100653.50;4982301;28;20454;-85
2023/01/01 04:45:40;;;;;;;8.20;5.00;;;;;;;15.10;54.70;100665.56;4970197;28;20446;-84
2023/01/01 04:48:11;;;;;;;6.30;4.87;;;;;;;15.09;54.78;100663.94;4988346;28;20473;-84
2023/01/01 04:50:42;;;;;;;4.43;4.03;;;;;;;15.14;54.47;100655.88;4981937;28;20445;-83
2023/01/01 04:53:11;;;;;;;7.37;3.97;;;;;;;15.05;54.82;100662.75;4989688;28;20477;-84
2023/01/01 04:55:40;;;;;;;6.90;4.50;;;;;;;14.96;55.16;100658.69;4983946;28;20426;-84
2023/01/01 05:01:25;;;;;;;11.27;4.37;;;;;;;15.21;54.50;100664.75;4951489;28;20942;-86
2023/01/01 05:04:18;;;;;;;7.70;4.50;;;;;;;15.11;54.66;100660.94;4983475;28;20488;-85
2023/01/01 05:07:49;;;;;;;7.43;3.67;;;;;;;15.06;54.74;100675.28;4983491;28;20558;-86
2023/01/01 05:21:50;;;;;;;13.90;5.03;;;;;;;15.04;54.92;100672.00;4980796;28;20413;-86
2023/01/01 05:24:23;;;;;;;5.43;4.00;;;;;;;15.09;54.56;100665.84;4968275;28;20453;-85
2023/01/01 05:26:56;;;;;;;10.50;4.10;;;;;;;15.15;54.38;100668.41;4968794;28;20472;-84
2023/01/01 05:29:27;;;;;;;10.53;4.70;;;;;;;15.11;54.40;100683.59;4987626;28;20824;-84
2023/01/01 05:31:57;;;;;;;10.10;4.30;;;;;;;15.06;54.71;100680.75;4973622;28;20474;-85
2023/01/01 05:34:28;;;;;;;5.00;4.07;;;;;;;15.00;54.85;100683.59;4994283;28;20451;-84
2023/01/01 05:36:59;;;;;;;10.50;4.93;;;;;;;15.12;54.45;100679.81;4982370;28;20433;-84
2023/01/01 05:39:31;;;;;;;7.70;4.27;;;;;;;15.00;54.69;100680.88;4995390;28;20432;-84
2023/01/01 05:42:01;;;;;;;5.67;3.50;;;;;;;15.06;54.82;100696.25;4974664;28;20487;-83
2023/01/01 05:44:31;;;;;;;8.23;4.53;;;;;;;15.09;54.59;100685.75;4996585;28;20431;-85
2023/01/01 05:47:01;;;;;;;8.63;4.83;;;;;;;15.09;54.68;100684.91;4980990;28;20508;-82
2023/01/01 05:49:31;;;;;;;13.23;4.27;;;;;;;15.09;54.95;100693.09;4992892;28;20448;-83
2023/01/01 05:52:03;;;;;;;9.30;3.53;;;;;;;15.01;54.93;100683.34;4982660;28;20461;-83
2023/01/01 05:54:37;;;;;;;5.10;3.47;;;;;;;15.08;54.76;100694.16;4992245;28;20498;-82
2023/01/01 05:57:10;;;;;;;6.63;4.20;;;;;;;15.09;54.79;100690.34;4976304;28;20512;-83
2023/01/01 05:59:50;;;;;;;6.70;3.70;;;;;;;15.07;54.76;100690.59;4969673;28;20790;-85
2023/01/01 06:02:20;;;;;;;6.60;4.10;;;;;;;14.99;55.12;100690.94;4990494;28;20472;-86
2023/01/01 06:04:50;;;;;;;8.87;5.13;;;;;;;15.03;54.87;100692.13;4984430;28;20438;-84
2023/01/01 06:10:37;;;;;;;10.23;3.83;;;;;;;14.88;55.46;100689.03;4988478;28;20443;-84
2023/01/01 06:13:08;;;;;;;6.80;3.43;;;;;;;15.00;55.05;100684.44;4980640;28;20377;-85
2023/01/01 06:15:44;;;;;;;6.47;3.70;;;;;;;15.00;55.01;100687.16;4997167;28;20480;-85
2023/01/01 06:18:15;;;;;;;9.17;4.70;;;;;;;15.04;54.88;100695.69;4997085;28;20449;-83
2023/01/01 06:24:28;;;;;;;6.33;3.50;;;;;;;15.10;54.74;100714.63;5082042;23;20496;-74
2023/01/01 06:27:10;;;;;;;5.93;3.40;;;;;;;15.09;54.81;100707.53;4973966;28;20444;-76
2023/01/01 06:29:42;;;;;;;7.03;3.73;;;;;;;15.09;54.92;100718.44;4975101;28;20571;-72
2023/01/01 06:32:17;;;;;;;5.63;3.30;;;;;;;15.09;54.71;100707.53;4958530;28;20456;-75
2023/01/01 06:34:50;;;;;;;8.77;3.90;;;;;;;15.05;55.01;100709.09;4983354;28;20465;-75
2023/01/01 06:37:20;;;;;;;10.63;3.80;;;;;;;14.94;55.02;100698.16;4978106;28;20413;-75
2023/01/01 06:39:53;;;;;;;10.10;3.90;;;;;;;14.82;55.54;100703.59;4991472;28;20421;-73
2023/01/01 06:42:25;;;;;;;8.93;3.40;;;;;;;14.87;55.50;100714.59;4972170;28;20481;-74
2023/01/01 06:45:08;;;;;;;6.63;3.17;;;;;;;14.83;55.70;100713.41;4988522;28;20449;-75
2023/01/01 06:47:39;;;;;;;6.87;3.43;;;;;;;14.86;55.60;100718.41;4994995;28;20492;-75
2023/01/01 06:50:12;;;;;;;7.80;3.50;;;;;;;14.86;55.70;100723.03;4993574;28;20439;-74
2023/01/01 06:52:43;;;;;;;12.37;4.90;;;;;;;14.81;55.65;100721.00;4993731;28;20466;-73
2023/01/01 06:55:16;;;;;;;9.40;3.73;;;;;;;14.89;55.48;100726.13;5000599;28;20465;-74
2023/01/01 06:57:57;;;;;;;9.70;4.07;;;;;;;14.82;55.74;100711.75;4996085;28;20418;-74
2023/01/01 07:00:31;;;;;;;18.90;3.80;;;;;;;14.75;56.14;100728.22;4994431;28;20450;-75
2023/01/01 07:03:02;;;;;;;15.37;4.10;;;;;;;14.72;56.11;100725.13;4976607;28;20453;-76
2023/01/01 07:05:35;;;;;;;7.90;4.10;;;;;;;14.79;56.11;100723.13;4987107;28;20531;-75
2023/01/01 07:08:09;;;;;;;11.40;3.00;;;;;;;14.65;56.38;100727.13;4987399;28;20470;-75
2023/01/01 07:10:40;;;;;;;8.40;4.80;;;;;;;14.58;56.64;100735.38;4980737;28;20423;-75
2023/01/01 07:13:14;;;;;;;10.00;3.50;;;;;;;14.63;56.38;100734.69;4984176;28;20435;-73
2023/01/01 07:15:45;;;;;;;6.37;3.13;;;;;;;14.67;56.39;100747.59;4983607;28;20434;-74
2023/01/01 07:18:15;;;;;;;7.97;3.53;;;;;;;14.78;56.48;100748.69;4970974;28;20449;-74
2023/01/01 07:20:51;;;;;;;6.43;3.67;;;;;;;14.75;56.34;100754.63;4966876;28;20945;-74
2023/01/01 07:23:22;;;;;;;6.30;3.87;;;;;;;14.76;56.33;100753.56;4984804;28;20477;-75
2023/01/01 07:25:53;;;;;;;6.90;3.70;;;;;;;14.68;56.71;100759.34;4978724;28;20796;-76
2023/01/01 07:28:26;;;;;;;6.63;4.87;;;;;;;14.73;56.47;100765.75;4985681;28;20453;-76
2023/01/01 07:30:57;;;;;;;9.20;3.90;;;;;;;14.88;56.20;100767.19;4984797;28;20505;-74
2023/01/01 07:33:28;;;;;;;12.07;3.23;;;;;;;14.87;56.02;100768.25;4974837;28;20447;-76
2023/01/01 07:36:02;;;;;;;4.83;3.70;;;;;;;14.86;56.02;100774.81;4989749;28;20494;-76
2023/01/01 07:38:32;;;;;;;6.80;3.97;;;;;;;14.93;55.84;100770.06;4990774;28;21003;-74
2023/01/01 07:41:02;;;;;;;10.37;4.10;;;;;;;14.97;56.04;100777.53;4987399;28;20417;-75
2023/01/01 07:43:35;;;;;;;8.80;3.87;;;;;;;14.94;55.80;100779.91;4972839;28;20950;-76
2023/01/01 07:46:06;;;;;;;6.40;3.73;;;;;;;14.94;56.10;100783.47;4989807;28;20528;-74
2023/01/01 07:48:36;;;;;;;5.20;3.30;;;;;;;14.91;55.98;100789.34;4984083;28;20896;-76
2023/01/01 07:51:08;;;;;;;8.77;4.70;;;;;;;14.96;56.10;100802.31;4969914;28;20437;-75
2023/01/01 07:53:38;;;;;;;6.47;3.60;;;;;;;14.92;56.21;100803.81;4972544;28;20414;-75
2023/01/01 07:56:09;;;;;;;10.40;4.17;;;;;;;14.89;56.24;100810.56;4978814;28;20510;-76
2023/01/01 07:58:44;;;;;;;4.67;3.57;;;;;;;14.91;56.19;100811.16;4974077;28;20768;-74
2023/01/01 08:01:15;;;;;;;7.30;4.77;;;;;;;14.85;55.96;100806.66;4961266;28;20864;-74
2023/01/01 08:03:53;;;;;;;5.37;3.30;;;;;;;14.87;56.09;100790.91;4965805;28;20469;-75
2023/01/01 08:06:25;;;;;;;7.27;4.60;;;;;;;14.92;56.29;100798.38;4962813;28;20475;-74
2023/01/01 08:09:22;;;;;;;8.70;4.90;;;;;;;14.94;56.24;100807.97;4962400;28;20484;-74
2023/01/01 08:11:52;;;;;;;4.83;4.33;;;;;;;15.05;55.80;100812.66;4976632;28;20485;-75
2023/01/01 08:14:27;;;;;;;5.10;3.90;;;;;;;14.99;56.04;100808.13;4960000;28;20444;-74
2023/01/01 08:16:59;;;;;;;6.40;3.80;;;;;;;14.93;56.12;100813.66;4977955;28;20434;-76
2023/01/01 08:19:30;;;;;;;8.93;4.57;;;;;;;15.10;55.85;100806.50;4978938;28;20459;-76
2023/01/01 08:22:01;;;;;;;6.53;3.63;;;;;;;15.01;55.93;100803.25;4979670;28;20516;-74
2023/01/01 08:24:34;;;;;;;12.73;6.90;;;;;;;15.03;55.96;100809.31;4980743;28;20478;-75
2023/01/01 08:27:05;;;;;;;5.90;4.20;;;;;;;15.07;55.92;100817.84;4984984;28;20470;-73
2023/01/01 08:29:37;;;;;;;6.67;5.03;;;;;;;15.16;55.72;100830.91;4973067;28;20532;-75
2023/01/01 08:32:13;;;;;;;9.00;4.23;;;;;;;15.19;55.64;100833.19;4987276;28;20410;-75
2023/01/01 08:34:48;;;;;;;11.40;4.63;;;;;;;15.22;55.48;100834.59;4962132;28;20549;-74
2023/01/01 08:37:19;;;;;;;7.00;4.90;;;;;;;15.30;55.51;100842.41;4958010;28;20417;-74
2023/01/01 08:39:51;;;;;;;6.23;4.50;;;;;;;15.25;55.56;100839.56;4958235;28;20524;-73
2023/01/01 08:42:24;;;;;;;7.90;5.53;;;;;;;15.31;55.31;100840.53;4976746;28;20462;-75
2023/01/01 08:44:56;;;;;;;7.73;4.93;;;;;;;15.30;55.34;100850.59;4972977;28;20451;-73
2023/01/01 08:47:27;;;;;;;6.67;4.47;;;;;;;15.26;55.51;100848.56;4971106;28;20441;-74
2023/01/01 08:49:58;;;;;;;7.63;5.00;;;;;;;15.33;55.41;100850.16;4981008;28;20422;-74
2023/01/01 08:52:30;;;;;;;8.30;4.73;;;;;;;15.37;55.29;100845.03;4966602;28;20420;-74
2023/01/01 08:55:00;;;;;;;5.13;4.13;;;;;;;15.38;55.48;100857.63;4973090;28;20503;-76
2023/01/01 08:57:32;;;;;;;8.83;5.27;;;;;;;15.37;55.27;100853.22;4971589;28;20991;-74
2023/01/01 09:00:04;;;;;;;5.70;4.60;;;;;;;15.43;55.24;100852.28;4972135;28;20709;-75
2023/01/01 09:02:36;;;;;;;8.30;4.80;;;;;;;15.46;55.34;100860.81;4975876;28;20409;-75
2023/01/01 09:05:09;;;;;;;9.20;5.00;;;;;;;15.42;55.18;100858.81;4995917;28;20429;-75
2023/01/01 09:07:42;;;;;;;13.17;5.20;;;;;;;15.33;55.42;100865.66;4984806;28;20469;-76
2023/01/01 09:10:12;;;;;;;8.50;4.70;;;;;;;15.36;55.54;100876.94;4992504;28;20447;-73
2023/01/01 09:12:47;;;;;;;6.90;4.60;;;;;;;15.37;55.61;100873.16;4969279;28;20457;-74
2023/01/01 09:15:20;;;;;;;9.90;6.43;;;;;;;15.43;55.57;100877.66;4992915;28;20505;-74
2023/01/01 09:17:52;;;;;;;5.70;3.90;;;;;;;15.51;55.15;100885.53;4972822;28;20470;-75
2023/01/01 09:20:34;;;;;;;7.90;4.70;;;;;;;15.50;55.30;100888.44;4969343;28;20433;-74
2023/01/01 09:23:06;;;;;;;6.50;4.70;;;;;;;15.50;55.62;100905.66;4985155;28;20437;-76
2023/01/01 09:25:37;;;;;;;8.90;5.07;;;;;;;15.53;55.53;100916.13;4967907;28;20453;-75
2023/01/01 09:28:13;;;;;;;8.73;5.23;;;;;;;15.52;55.61;100916.38;4975532;28;20885;-77
2023/01/01 09:30:56;;;;;;;6.47;4.03;;;;;;;15.55;55.60;100910.44;4977765;28;20456;-74
2023/01/01 09:33:30;;;;;;;5.57;4.40;;;;;;;15.61;55.36;100898.59;4982598;28;20406;-75
2023/01/01 09:36:28;;;;;;;8.50;5.43;;;;;;;15.69;55.15;100909.16;4979442;28;20459;-75
2023/01/01 09:38:59;;;;;;;4.93;4.00;;;;;;;15.72;54.68;100908.69;4963180;28;20483;-75
2023/01/01 09:41:55;;;;;;;6.87;4.00;;;;;;;15.76;54.78;100911.78;4978807;28;20553;-75
2023/01/01 09:44:52;;;;;;;6.70;4.73;;;;;;;15.95;54.55;100908.69;4973072;28;20449;-74
2023/01/01 09:47:33;;;;;;;6.10;4.27;;;;;;;16.13;54.09;100915.09;4989505;28;20421;-74
2023/01/01 09:50:08;;;;;;;9.60;6.80;;;;;;;16.08;54.15;100911.19;4975274;28;20457;-76
2023/01/01 09:52:44;;;;;;;7.20;4.13;;;;;;;16.26;53.88;100920.34;4969725;28;20446;-74
2023/01/01 09:55:25;;;;;;;9.13;5.07;;;;;;;16.19;53.75;100914.16;4990180;28;20454;-75
2023/01/01 09:57:56;;;;;;;6.47;5.20;;;;;;;16.19;53.86;100919.63;4987455;28;20486;-73
2023/01/01 10:00:27;;;;;;;8.47;4.57;;;;;;;16.11;54.05;100912.63;4974958;28;20427;-76
2023/01/01 10:03:13;;;;;;;9.67;4.53;;;;;;;16.20;54.05;100916.66;4991511;28;20473;-75
2023/01/01 10:05:55;;;;;;;6.20;4.33;;;;;;;16.26;53.84;100920.34;4969587;28;20474;-74
2023/01/01 10:08:49;;;;;;;9.70;3.93;;;;;;;16.24;53.93;100927.91;4966974;28;20467;-74
2023/01/01 10:11:26;;;;;;;5.50;4.83;;;;;;;16.24;53.79;100931.47;4989078;28;20429;-76
2023/01/01 10:13:58;;;;;;;5.40;3.80;;;;;;;16.26;53.85;100940.28;4964204;28;20414;-75
2023/01/01 10:16:36;;;;;;;8.27;4.20;;;;;;;16.34;53.64;100939.06;4989230;28;20455;-74
2023/01/01 10:19:23;;;;;;;7.70;4.23;;;;;;;16.34;53.51;100939.06;4986056;28;20432;-74
2023/01/01 10:21:58;;;;;;;5.20;3.30;;;;;;;16.21;54.00;100936.59;4980030;28;20480;-74
2023/01/01 10:24:43;;;;;;;7.77;3.70;;;;;;;16.19;54.20;100936.84;4969111;28;20475;-74
2023/01/01 10:27:27;;;;;;;7.13;3.57;;;;;;;16.19;54.08;100927.81;4973544;28;20417;-75
2023/01/01 10:30:00;;;;;;;5.63;4.13;;;;;;;16.24;53.88;100944.31;4960744;28;20611;-73
2023/01/01 10:32:37;;;;;;;5.60;3.00;;;;;;;16.20;53.99;100948.59;4953671;28;20420;-74
2023/01/01 10:35:14;;;;;;;6.37;3.43;;;;;;;16.29;53.79;100952.63;4972245;28;20462;-75
2023/01/01 10:37:45;;;;;;;6.47;3.40;;;;;;;16.29;53.98;100958.06;5007198;23;20464;-72
2023/01/01 10:40:19;;;;;;;6.23;3.67;;;;;;;16.30;53.92;100957.84;4969422;28;20398;-73
2023/01/01 10:42:50;;;;;;;4.27;3.30;;;;;;;16.27;53.92;100963.75;4970446;28;20936;-72
2023/01/01 10:45:23;;;;;;;5.23;2.67;;;;;;;16.21;54.09;100955.72;4960697;28;20422;-72
2023/01/01 10:48:13;;;;;;;4.27;3.13;;;;;;;16.15;54.22;100962.94;4967138;28;20804;-72
2023/01/01 10:50:46;;;;;;;7.40;3.10;;;;;;;16.09;54.28;100951.06;4963456;28;20791;-73
2023/01/01 10:53:28;;;;;;;4.40;3.43;;;;;;;16.19;54.07;100952.38;4969392;28;20401;-73
2023/01/01 10:56:02;;;;;;;7.40;4.00;;;;;;;16.23;53.74;100959.84;4969679;28;20747;-72
2023/01/01 10:58:41;;;;;;;3.90;2.87;;;;;;;16.19;54.18;100957.84;4962719;28;20595;-72
2023/01/01 11:01:12;;;;;;;10.60;3.90;;;;;;;16.20;53.77;100954.88;4965522;28;20435;-74
2023/01/01 11:04:00;;;;;;;5.37;2.40;;;;;;;16.20;53.94;100964.97;4963965;28;20431;-70
2023/01/01 11:06:34;;;;;;;8.13;2.67;;;;;;;16.24;53.97;100983.38;4964047;28;20930;-70
2023/01/01 11:09:06;;;;;;;6.63;3.10;;;;;;;16.25;53.86;100973.28;4963487;28;20510;-71
2023/01/01 11:11:42;;;;;;;10.43;2.40;;;;;;;16.21;54.13;100989.31;4962114;28;20719;-72
2023/01/01 11:14:21;;;;;;;4.80;2.97;;;;;;;16.20;54.16;100993.09;4963928;28;20421;-69
2023/01/01 11:16:51;;;;;;;5.00;3.33;;;;;;;16.28;53.84;101000.09;4965182;28;20397;-71
2023/01/01 11:19:24;;;;;;;3.50;2.63;;;;;;;16.23;54.12;101003.53;4964210;28;20786;-72
2023/01/01 11:21:54;;;;;;;4.60;3.17;;;;;;;16.17;54.22;101003.69;4961303;28;20427;-73
2023/01/01 11:24:25;;;;;;;8.40;3.00;;;;;;;16.17;54.34;101017.31;4964643;28;20461;-75
2023/01/01 11:27:12;;;;;;;6.73;2.87;;;;;;;16.07;54.66;101004.25;4965703;28;20406;-71
2023/01/01 11:29:41;;;;;;;3.80;3.43;;;;;;;16.08;54.51;100998.53;4968495;28;20773;-72
2023/01/01 11:32:13;;;;;;;5.23;3.40;;;;;;;16.16;54.58;101002.84;4969708;28;20438;-71
2023/01/01 11:34:44;;;;;;;5.10;2.90;;;;;;;16.22;54.30;100995.56;4969625;28;21013;-72
2023/01/01 11:37:25;;;;;;;7.10;3.30;;;;;;;16.24;54.12;100993.44;4968893;28;20410;-72
2023/01/01 11:39:57;;;;;;;6.07;3.00;;;;;;;16.22;54.20;100985.50;4972267;28;20548;-74
2023/01/01 11:42:28;;;;;;;5.13;2.70;;;;;;;16.27;54.11;100988.34;4976006;28;20572;-70
2023/01/01 11:45:00;;;;;;;6.53;3.23;;;;;;;16.31;54.10;100986.81;4976287;28;20971;-72
2023/01/01 11:47:34;;;;;;;5.50;3.30;;;;;;;16.32;54.03;100973.97;4973393;28;20402;-73
2023/01/01 11:50:14;;;;;;;8.37;3.50;;;;;;;16.31;54.14;100999.66;4976622;28;20459;-73
2023/01/01 11:52:47;;;;;;;3.00;2.43;;;;;;;16.40;53.92;100995.47;4980512;28;20397;-72
2023/01/01 11:55:26;;;;;;;5.50;3.07;;;;;;;16.36;54.03;101006.03;4984609;28;20437;-72
2023/01/01 11:58:01;;;;;;;7.77;3.57;;;;;;;16.38;53.94;101014.84;4983933;28;20803;-72
2023/01/01 12:00:35;;;;;;;8.10;2.90;;;;;;;16.30;54.21;101006.16;4987801;28;20434;-73
2023/01/01 12:03:17;;;;;;;3.90;3.50;;;;;;;16.46;54.09;101013.63;4979818;28;20633;-74
2023/01/01 12:05:51;;;;;;;8.60;3.77;;;;;;;16.38;54.37;101011.25;4970673;28;20466;-71
2023/01/01 12:08:33;;;;;;;3.47;2.53;;;;;;;16.39;54.37;101021.97;4969026;28;20439;-73
2023/01/01 12:11:11;;;;;;;5.70;3.67;;;;;;;16.49;54.28;101024.09;4975292;28;20441;-71
2023/01/01 12:13:49;;;;;;;5.77;2.70;;;;;;;16.41;54.65;101038.13;4974417;28;20408;-72
2023/01/01 12:16:24;;;;;;;7.23;4.37;;;;;;;16.23;54.70;101025.38;4974181;28;20508;-73
2023/01/01 12:19:02;;;;;;;8.13;3.03;;;;;;;16.11;55.13;101027.28;4975884;28;20409;-74
2023/01/01 12:21:33;;;;;;;8.30;3.47;;;;;;;16.27;54.70;101031.19;4975555;28;20420;-74